Time;durP1;ratioP1;P1;durP2;ratioP2;P2;SDS_P1;SDS_P2;PMS_P1;PMS_P2;Temp;Humidity;BMP_temperature;BMP_pressure;BME280_temperature;BME280_humidity;BME280_pressure;Samples;Min_cycle;Max_cycle;Signal;HPM_P1;HPM_P2
2023/10/02 00:01:24;;;;;;;22.02;13.93;;;17.50;99.90;;;;;;5006374;28;20050;-58
2023/10/02 00:04:16;;;;;;;21.98;13.57;;;17.50;99.90;;;;;;5006645;28;20042;-57
2023/10/02 00:06:37;;;;;;;22.45;14.40;;;17.50;99.90;;;;;;5004749;28;20143;-58
2023/10/02 00:09:04;;;;;;;23.40;14.73;;;17.50;99.90;;;;;;5006871;28;20066;-55
2023/10/02 00:11:41;;;;;;;21.55;14.32;;;17.50;99.90;;;;;;5005503;28;20049;-56
2023/10/02 00:14:25;;;;;;;23.80;14.75;;;17.50;99.90;;;;;;5005815;28;20180;-54
2023/10/02 00:16:59;;;;;;;21.77;13.98;;;17.50;99.90;;;;;;5005459;28;20052;-58
2023/10/02 00:19:27;;;;;;;22.08;14.38;;;17.40;99.90;;;;;;5006368;28;20054;-57
2023/10/02 00:21:57;;;;;;;21.80;13.88;;;17.40;99.90;;;;;;5005667;28;20128;-55
2023/10/02 00:24:27;;;;;;;20.75;14.23;;;17.40;99.90;;;;;;5006244;28;20133;-56
2023/10/02 00:26:58;;;;;;;25.75;13.50;;;17.40;99.90;;;;;;5005539;28;20113;-58
2023/10/02 00:29:26;;;;;;;25.05;13.27;;;17.40;99.90;;;;;;5003820;28;20683;-54
2023/10/02 00:31:52;;;;;;;19.75;12.75;;;17.40;99.90;;;;;;5006539;28;20057;-54
2023/10/02 00:34:30;;;;;;;23.23;13.38;;;17.40;99.90;;;;;;5006320;28;20069;-54
2023/10/02 00:36:59;;;;;;;20.90;13.43;;;17.30;99.90;;;;;;5004811;28;20108;-57
2023/10/02 00:39:27;;;;;;;24.02;13.48;;;17.30;99.90;;;;;;5005678;28;20397;-57
2023/10/02 00:45:22;;;;;;;21.67;13.05;;;17.20;99.90;;;;;;5003511;28;20046;-58
2023/10/02 00:47:49;;;;;;;22.05;13.57;;;17.20;99.90;;;;;;5001779;28;20153;-58
2023/10/02 00:50:22;;;;;;;22.17;13.80;;;17.20;99.90;;;;;;5006061;28;20049;-58
2023/10/02 00:52:54;;;;;;;23.27;14.03;;;17.20;99.90;;;;;;5005353;28;20057;-59
2023/10/02 00:55:23;;;;;;;23.63;13.27;;;17.20;99.90;;;;;;5003813;28;20096;-58
2023/10/02 00:57:51;;;;;;;23.27;13.45;;;17.20;99.90;;;;;;5004858;28;20057;-58
2023/10/02 01:00:21;;;;;;;22.13;13.73;;;17.20;99.90;;;;;;5005290;28;20042;-55
2023/10/02 01:02:51;;;;;;;22.88;14.18;;;17.20;99.90;;;;;;5004360;28;20084;-57
2023/10/02 01:05:27;;;;;;;21.40;12.68;;;17.20;99.90;;;;;;5004262;28;20939;-58
2023/10/02 01:07:54;;;;;;;24.90;14.35;;;17.20;99.90;;;;;;5004071;28;20121;-58
2023/10/02 01:10:20;;;;;;;21.75;13.63;;;17.20;99.90;;;;;;5004784;28;20050;-58
2023/10/02 01:12:51;;;;;;;21.98;13.55;;;17.20;99.90;;;;;;4987791;28;20050;-59
2023/10/02 01:15:22;;;;;;;23.77;13.60;;;17.20;99.90;;;;;;5003716;28;20420;-58
2023/10/02 01:17:52;;;;;;;24.50;14.57;;;17.20;99.90;;;;;;5005071;28;20042;-57
2023/10/02 01:20:32;;;;;;;24.38;14.75;;;17.20;99.90;;;;;;5012199;28;20081;-56
2023/10/02 01:23:16;;;;;;;22.92;14.32;;;17.20;99.90;;;;;;5024476;28;20042;-58
2023/10/02 01:25:47;;;;;;;25.60;14.90;;;17.20;99.90;;;;;;5023777;28;20052;-55
2023/10/02 01:28:15;;;;;;;22.50;13.25;;;17.20;99.90;;;;;;5023874;28;20120;-53
2023/10/02 01:30:44;;;;;;;22.45;14.02;;;17.30;99.90;;;;;;5023761;28;20433;-56
2023/10/02 01:35:50;;;;;;;22.35;14.05;;;17.20;99.90;;;;;;5022540;28;20049;-53
2023/10/02 01:38:33;;;;;;;22.10;13.30;;;17.20;99.90;;;;;;5012473;28;20070;-56
2023/10/02 01:41:08;;;;;;;22.90;14.77;;;17.20;99.90;;;;;;5003832;28;20060;-55
2023/10/02 01:43:39;;;;;;;23.20;14.13;;;17.20;99.90;;;;;;5004050;28;20091;-58
2023/10/02 01:46:06;;;;;;;24.30;14.73;;;17.20;99.90;;;;;;5004656;28;20072;-55
2023/10/02 01:48:36;;;;;;;23.08;14.27;;;17.20;99.90;;;;;;5002985;28;20045;-58
2023/10/02 01:51:26;;;;;;;21.83;14.00;;;17.20;99.90;;;;;;5003378;28;20473;-58
2023/10/02 01:53:59;;;;;;;24.30;14.70;;;17.20;99.90;;;;;;5003679;28;20046;-58
2023/10/02 01:56:29;;;;;;;23.98;14.60;;;17.20;99.90;;;;;;5002993;28;20073;-59
2023/10/02 01:59:09;;;;;;;24.75;14.50;;;17.20;99.90;;;;;;5004173;28;20038;-53
2023/10/02 02:04:21;;;;;;;24.30;14.88;;;17.20;99.90;;;;;;5002838;28;20038;-58
2023/10/02 02:06:51;;;;;;;25.33;15.13;;;17.20;99.90;;;;;;5003076;28;20054;-59
2023/10/02 02:09:24;;;;;;;23.30;14.18;;;17.20;99.90;;;;;;5003976;28;20122;-58
2023/10/02 02:12:10;;;;;;;22.58;13.93;;;17.20;99.90;;;;;;5002585;28;20091;-57
2023/10/02 02:14:50;;;;;;;26.20;15.05;;;17.10;99.90;;;;;;5003326;28;20406;-56
2023/10/02 02:17:18;;;;;;;25.13;14.32;;;17.10;99.90;;;;;;5000442;28;20149;-58
2023/10/02 02:19:50;;;;;;;24.15;15.07;;;17.10;99.90;;;;;;4985615;28;20455;-54
2023/10/02 02:22:16;;;;;;;28.23;15.35;;;17.00;99.90;;;;;;5002667;28;20552;-58
2023/10/02 02:24:42;;;;;;;26.67;14.88;;;17.00;99.90;;;;;;5002492;28;20037;-58
2023/10/02 02:27:08;;;;;;;22.60;13.50;;;16.90;99.90;;;;;;5004261;28;20459;-57
2023/10/02 02:29:34;;;;;;;26.92;15.23;;;17.00;99.90;;;;;;5003437;28;20074;-57
2023/10/02 02:32:00;;;;;;;25.20;14.82;;;16.90;99.90;;;;;;5003217;28;20050;-55
2023/10/02 02:34:26;;;;;;;25.63;15.18;;;16.90;99.90;;;;;;5004206;28;20132;-56
2023/10/02 02:36:54;;;;;;;25.42;15.40;;;16.90;99.90;;;;;;5002999;28;20137;-57
2023/10/02 02:39:24;;;;;;;27.77;15.65;;;16.90;99.90;;;;;;5002904;28;20099;-55
2023/10/02 02:42:30;;;;;;;25.60;14.57;;;16.80;99.90;;;;;;5002916;28;20204;-57
2023/10/02 02:44:50;;;;;;;23.58;15.98;;;16.80;99.90;;;;;;5000464;28;20045;-58
2023/10/02 02:47:21;;;;;;;24.23;16.65;;;16.70;99.90;;;;;;5003201;28;20595;-55
2023/10/02 02:49:52;;;;;;;27.50;17.15;;;16.80;99.90;;;;;;5003933;28;20123;-56
2023/10/02 02:52:19;;;;;;;25.02;15.95;;;16.80;99.90;;;;;;5001092;28;20038;-57
2023/10/02 02:54:47;;;;;;;26.17;15.30;;;16.70;99.90;;;;;;5003708;28;20046;-56
2023/10/02 02:57:25;;;;;;;25.15;15.93;;;16.70;99.90;;;;;;5002777;28;20041;-56
2023/10/02 03:00:24;;;;;;;30.38;16.95;;;16.70;99.90;;;;;;4982667;28;20049;-58
2023/10/02 03:02:40;;;;;;;25.70;16.30;;;16.60;99.90;;;;;;4982887;28;20519;-57
2023/10/02 03:05:11;;;;;;;24.38;15.65;;;16.60;99.90;;;;;;4982951;28;20410;-58
2023/10/02 03:07:39;;;;;;;26.85;16.00;;;16.60;99.90;;;;;;4982900;28;20053;-56
2023/10/02 03:10:10;;;;;;;26.05;17.23;;;16.60;99.90;;;;;;4983190;28;20120;-55
2023/10/02 03:12:42;;;;;;;26.48;16.33;;;16.60;99.90;;;;;;4980843;28;20042;-58
2023/10/02 03:15:12;;;;;;;25.80;16.88;;;16.60;99.90;;;;;;4982567;28;20069;-58
2023/10/02 03:17:41;;;;;;;28.50;16.77;;;16.60;99.90;;;;;;4982815;28;20042;-57
2023/10/02 03:20:22;;;;;;;;;;;16.60;99.90;;;;;;4982192;28;20035;-58
2023/10/02 03:22:53;;;;;;;25.83;17.25;;;16.50;99.90;;;;;;4982947;28;20072;-58
2023/10/02 03:25:40;;;;;;;28.63;17.65;;;16.50;99.90;;;;;;4982565;28;20049;-58
2023/10/02 03:28:16;;;;;;;31.00;17.30;;;16.50;99.90;;;;;;4981272;28;20076;-57
2023/10/02 03:30:43;;;;;;;27.42;17.15;;;16.40;99.90;;;;;;4981475;28;20049;-57
2023/10/02 03:33:19;;;;;;;25.70;17.33;;;16.50;99.90;;;;;;4992951;28;20049;-58
2023/10/02 03:35:59;;;;;;;27.45;17.17;;;16.50;99.90;;;;;;5001556;28;20121;-55
2023/10/02 03:38:26;;;;;;;26.48;17.10;;;16.40;99.90;;;;;;5002291;28;20042;-56
2023/10/02 03:40:57;;;;;;;26.33;16.73;;;16.40;99.90;;;;;;5002227;28;20076;-57
2023/10/02 03:43:35;;;;;;;29.25;16.63;;;16.50;99.90;;;;;;5000588;28;20045;-58
2023/10/02 03:46:15;;;;;;;26.67;16.45;;;16.40;99.90;;;;;;5003061;28;20092;-53
2023/10/02 03:48:41;;;;;;;26.05;16.50;;;16.40;99.90;;;;;;5001949;28;20477;-58
2023/10/02 03:51:07;;;;;;;27.08;17.33;;;16.40;99.90;;;;;;5001468;28;20124;-58
2023/10/02 03:53:34;;;;;;;28.88;17.10;;;16.40;99.90;;;;;;5001115;28;20593;-56
2023/10/02 03:58:45;;;;;;;25.45;15.57;;;16.40;99.90;;;;;;4993385;28;20058;-55
2023/10/02 04:01:11;;;;;;;28.13;16.67;;;16.40;99.90;;;;;;5001991;28;20044;-56
2023/10/02 04:03:53;;;;;;;25.67;16.27;;;16.40;99.90;;;;;;5002527;28;20961;-56
2023/10/02 04:06:33;;;;;;;26.67;16.52;;;16.30;99.90;;;;;;5001362;28;20050;-56
2023/10/02 04:09:12;;;;;;;27.55;16.48;;;16.30;99.90;;;;;;5001346;28;20509;-58
2023/10/02 04:11:39;;;;;;;;;;;16.30;99.90;;;;;;4999992;28;20501;-62
2023/10/02 04:14:17;;;;;;;;;;;16.10;99.90;;;;;;4995708;28;25076;-55
2023/10/02 04:16:49;;;;;;;;;;;16.20;99.90;;;;;;4994664;28;25053;-58
2023/10/02 04:19:24;;;;;;;28.00;14.95;;;16.20;99.90;;;;;;5001524;28;19917;-55
2023/10/02 04:21:56;;;;;;;;;;;16.20;99.90;;;;;;4998242;28;20128;-55
2023/10/02 04:24:24;;;;;;;;;;;16.10;99.90;;;;;;4999948;28;20004;-58
2023/10/02 04:26:54;;;;;;;;;;;16.10;99.90;;;;;;4996982;28;25070;-58
2023/10/02 04:32:11;;;;;;;27.48;16.98;;;16.10;99.90;;;;;;5001758;28;20140;-56
2023/10/02 04:34:37;;;;;;;26.65;17.52;;;16.00;99.90;;;;;;5000501;28;20046;-55
2023/10/02 04:37:19;;;;;;;27.58;17.38;;;16.10;99.90;;;;;;4999806;28;20543;-56
2023/10/02 04:45:20;;;;;;;;;;;15.90;99.90;;;;;;5006219;28;20054;-59
2023/10/02 04:47:49;;;;;;;30.33;16.73;;;15.90;99.90;;;;;;5005688;28;20364;-56
2023/10/02 04:53:19;;;;;;;30.77;17.60;;;16.00;99.90;;;;;;5004293;28;20121;-58
2023/10/02 04:55:48;;;;;;;28.75;17.27;;;16.00;99.90;;;;;;5003546;28;20231;-57
2023/10/02 04:58:19;;;;;;;28.50;16.83;;;16.00;99.90;;;;;;5004182;28;20169;-56
2023/10/02 05:03:37;;;;;;;27.88;17.80;;;16.00;99.90;;;;;;5003964;28;20532;-57
2023/10/02 05:06:04;;;;;;;30.70;18.67;;;15.90;99.90;;;;;;5004640;28;20057;-58
2023/10/02 05:11:21;;;;;;;31.58;18.00;;;15.90;99.90;;;;;;5004030;28;20100;-56
2023/10/02 05:16:35;;;;;;;29.88;18.30;;;15.90;99.90;;;;;;5003729;28;20062;-58
2023/10/02 05:19:04;;;;;;;31.50;18.60;;;15.90;99.90;;;;;;5005121;28;20112;-57
2023/10/02 05:21:36;;;;;;;29.00;17.95;;;15.90;99.90;;;;;;5003840;28;20049;-57
2023/10/02 05:24:06;;;;;;;29.15;17.67;;;16.00;99.90;;;;;;5005249;28;20042;-55
2023/10/02 05:26:39;;;;;;;31.02;19.23;;;16.00;99.90;;;;;;5004089;28;20039;-58
2023/10/02 05:29:12;;;;;;;30.25;18.88;;;16.00;99.90;;;;;;5003028;28;20045;-58
2023/10/02 05:31:41;;;;;;;29.92;18.15;;;15.90;99.90;;;;;;5002742;28;20100;-56
2023/10/02 05:34:24;;;;;;;28.23;18.73;;;15.90;99.90;;;;;;5004005;28;20104;-55
2023/10/02 05:37:11;;;;;;;31.27;18.42;;;15.90;99.90;;;;;;5002919;28;20068;-57
2023/10/02 05:39:40;;;;;;;30.98;18.80;;;15.80;99.90;;;;;;5001786;28;20042;-53
2023/10/02 05:42:15;;;;;;;31.70;18.45;;;15.90;99.90;;;;;;5002670;28;20476;-55
2023/10/02 05:44:43;;;;;;;31.40;18.63;;;15.90;99.90;;;;;;5003977;28;20476;-57
2023/10/02 05:47:09;;;;;;;31.17;18.70;;;15.90;99.90;;;;;;5002032;28;20132;-56
2023/10/02 05:49:48;;;;;;;29.25;17.85;;;15.80;99.90;;;;;;5003204;28;20416;-58
2023/10/02 05:52:14;;;;;;;32.85;19.20;;;15.90;99.90;;;;;;5004685;28;20180;-55
2023/10/02 05:54:47;;;;;;;28.27;17.02;;;15.80;99.90;;;;;;5001728;28;20057;-55
2023/10/02 05:57:13;;;;;;;28.88;18.13;;;15.70;99.90;;;;;;5000122;28;20131;-56
2023/10/02 05:59:44;;;;;;;30.52;18.75;;;15.80;99.90;;;;;;5003177;28;20147;-57
2023/10/02 06:02:20;;;;;;;33.80;18.60;;;15.70;99.90;;;;;;5002690;28;20117;-57
2023/10/02 06:04:53;;;;;;;31.85;18.08;;;15.70;99.90;;;;;;5001738;28;20049;-58
2023/10/02 06:07:43;;;;;;;30.67;18.38;;;15.80;99.90;;;;;;5003831;28;20128;-56
2023/10/02 06:10:25;;;;;;;32.95;18.83;;;15.80;99.90;;;;;;5004105;28;20056;-57
2023/10/02 06:13:05;;;;;;;31.17;18.02;;;15.80;99.90;;;;;;5003198;28;20133;-58
2023/10/02 06:15:43;;;;;;;30.45;18.13;;;15.80;99.90;;;;;;5003570;28;20065;-57
2023/10/02 06:18:09;;;;;;;33.03;18.83;;;15.80;99.90;;;;;;5003135;28;20462;-58
2023/10/02 06:20:35;;;;;;;33.30;19.27;;;15.80;99.90;;;;;;5002566;28;20133;-58
2023/10/02 06:23:19;;;;;;;29.48;18.10;;;15.70;99.90;;;;;;5003798;28;20632;-59
2023/10/02 06:25:46;;;;;;;29.00;18.48;;;15.90;99.90;;;;;;5003537;28;20042;-56
2023/10/02 06:28:25;;;;;;;31.83;19.10;;;15.80;99.90;;;;;;5003678;28;20089;-56
2023/10/02 06:30:51;;;;;;;28.13;18.38;;;16.20;99.90;;;;;;5002340;28;20042;-58
2023/10/02 06:33:21;;;;;;;32.60;19.10;;;15.90;99.90;;;;;;5003209;28;20042;-58
2023/10/02 06:35:57;;;;;;;31.50;20.08;;;16.00;99.90;;;;;;5003045;28;20045;-52
2023/10/02 06:38:23;;;;;;;31.50;19.75;;;16.00;99.90;;;;;;5002117;28;20096;-56
2023/10/02 06:40:56;;;;;;;28.95;19.02;;;16.00;99.90;;;;;;5003893;28;20075;-57
2023/10/02 06:43:28;;;;;;;30.13;19.30;;;16.10;99.90;;;;;;4985413;28;20046;-57
2023/10/02 06:46:16;;;;;;;31.98;19.33;;;16.20;99.90;;;;;;5002684;28;20113;-58
2023/10/02 06:48:54;;;;;;;31.83;18.73;;;16.20;99.90;;;;;;5003942;28;20050;-55
2023/10/02 06:51:20;;;;;;;30.25;17.83;;;16.10;99.90;;;;;;5000988;28;20050;-57
2023/10/02 06:53:46;;;;;;;1048.70;831.00;;;16.20;99.90;;;;;;5002025;28;20050;-59
2023/10/02 06:56:12;;;;;;;;;;;16.20;99.90;;;;;;5001666;28;20425;-58
2023/10/02 06:58:54;;;;;;;;;;;16.20;99.90;;;;;;4995841;28;25075;-56
2023/10/02 07:01:19;;;;;;;;;;;16.30;99.90;;;;;;5001513;28;19928;-57
2023/10/02 07:03:51;;;;;;;;;;;16.30;99.90;;;;;;4994530;28;25080;-58
2023/10/02 07:06:19;;;;;;;;;;;16.30;99.90;;;;;;5001297;28;19921;-58
2023/10/02 07:08:47;;;;;;;;;;;16.20;99.90;;;;;;4995556;28;25078;-57
2023/10/02 07:11:13;;;;;;;;;;;16.30;99.90;;;;;;4997885;28;25100;-58
2023/10/02 07:13:51;;;;;;;;;;;16.40;99.90;;;;;;5001598;28;25085;-56
2023/10/02 07:16:17;;;;;;;;;;;16.30;99.90;;;;;;4996508;28;25052;-57
2023/10/02 07:18:49;;;;;;;;;;;16.40;99.90;;;;;;4999123;28;24085;-58
2023/10/02 07:21:19;;;;;;;;;;;16.40;99.90;;;;;;4997124;28;25103;-58
2023/10/02 07:23:45;;;;;;;;;;;16.50;99.90;;;;;;5002452;28;25100;-59
2023/10/02 07:26:14;;;;;;;;;;;16.50;99.90;;;;;;4998703;28;25179;-58
2023/10/02 07:28:52;;;;;;;;;;;16.60;99.90;;;;;;5001194;28;20135;-59
2023/10/02 07:31:18;;;;;;;;;;;16.60;99.90;;;;;;4998288;28;20298;-56
2023/10/02 07:33:44;;;;;;;;;;;16.70;99.90;;;;;;5000473;28;25094;-58
2023/10/02 07:36:16;;;;;;;;;;;16.80;99.90;;;;;;5000646;28;19921;-58
2023/10/02 07:38:42;;;;;;;;;;;16.70;99.90;;;;;;5000879;28;25367;-58
2023/10/02 07:41:14;;;;;;;;;;;16.70;99.90;;;;;;5000185;28;25116;-55
2023/10/02 07:43:40;;;;;;;;;;;16.90;99.90;;;;;;5000002;28;20422;-58
2023/10/02 07:46:14;;;;;;;;;;;16.90;99.90;;;;;;5002341;28;19924;-55
2023/10/02 07:48:41;;;;;;;;;;;16.90;99.90;;;;;;5001459;28;20066;-58
2023/10/02 07:51:09;;;;;;;;;;;16.90;99.90;;;;;;5001643;28;20389;-58
2023/10/02 07:53:40;;;;;;;;;;;17.00;99.90;;;;;;5002004;28;20320;-58
2023/10/02 07:56:07;;;;;;;;;;;17.10;99.90;;;;;;5001490;28;20067;-57
2023/10/02 07:58:33;;;;;;;;;;;17.10;99.90;;;;;;5001349;28;24065;-60
2023/10/02 08:01:06;;;;;;;;;;;17.20;99.90;;;;;;5017166;28;19965;-58
2023/10/02 08:03:32;;;;;;;;;;;17.30;99.90;;;;;;5001126;28;19975;-58
2023/10/02 08:06:00;;;;;;;;;;;17.40;99.90;;;;;;5000604;28;19921;-57
2023/10/02 08:08:31;;;;;;;;;;;17.50;99.90;;;;;;4999661;28;20389;-57
2023/10/02 08:10:57;;;;;;;;;;;17.60;99.90;;;;;;5000251;28;20059;-59
2023/10/02 08:13:48;;;;;;;;;;;17.70;99.90;;;;;;4999367;28;25054;-57
2023/10/02 08:16:15;;;;;;;;;;;17.80;99.90;;;;;;5003189;28;25134;-57
2023/10/02 08:18:57;;;;;;;;;;;18.00;99.90;;;;;;5005386;28;20249;-58
2023/10/02 08:21:33;;;;;;;;;;;18.00;99.90;;;;;;5004692;28;20286;-59
2023/10/02 08:24:03;;;;;;;;;;;18.10;99.90;;;;;;5005615;28;19922;-58
2023/10/02 08:26:38;;;;;;;;;;;18.10;99.90;;;;;;5004973;28;20071;-59
2023/10/02 08:29:10;;;;;;;;;;;18.20;99.90;;;;;;5004456;28;25089;-57
2023/10/02 08:31:43;;;;;;;;;;;18.20;99.90;;;;;;4999196;28;20650;-56
2023/10/02 08:34:24;;;;;;;;;;;18.20;99.90;;;;;;5004476;28;25064;-57
2023/10/02 08:37:09;;;;;;;;;;;18.30;99.90;;;;;;5005029;28;19985;-57
2023/10/02 08:39:36;;;;;;;;;;;18.40;99.90;;;;;;5004868;28;19956;-53
2023/10/02 08:42:10;;;;;;;;;;;18.50;99.90;;;;;;5003711;28;25102;-54
2023/10/02 08:44:41;;;;;;;;;;;18.50;99.90;;;;;;5004648;28;19972;-59
2023/10/02 08:47:24;;;;;;;1370.10;999.90;;;18.60;99.90;;;;;;5005106;28;20148;-58
2023/10/02 08:50:14;;;;;;;1377.13;946.65;;;18.70;99.90;;;;;;5004878;28;20054;-57
2023/10/02 08:52:47;;;;;;;;;;;18.80;99.90;;;;;;5003794;28;20053;-58
2023/10/02 08:55:36;;;;;;;;;;;19.00;99.90;;;;;;5003372;28;19971;-54
2023/10/02 08:58:27;;;;;;;;;;;19.00;99.90;;;;;;5004632;28;20431;-59
2023/10/02 09:01:17;;;;;;;;;;;19.20;99.90;;;;;;5002266;28;19921;-58
2023/10/02 09:04:03;;;;;;;;;;;19.70;99.90;;;;;;5004487;28;20276;-56
2023/10/02 09:06:36;;;;;;;;;;;19.90;99.90;;;;;;5002727;28;25068;-59
2023/10/02 09:11:41;;;;;;;;;;;19.80;99.90;;;;;;5004324;28;25136;-57
2023/10/02 09:16:47;;;;;;;;;;;20.10;99.90;;;;;;5004453;28;19921;-57
2023/10/02 09:19:30;;;;;;;1445.80;999.90;;;20.10;99.90;;;;;;5002264;28;25064;-56
2023/10/02 09:22:06;;;;;;;;;;;20.10;99.90;;;;;;5004351;28;20038;-57
2023/10/02 09:25:09;;;;;;;;;;;19.90;99.90;;;;;;5002868;28;20067;-52
2023/10/02 09:27:27;;;;;;;;;;;19.70;99.90;;;;;;5001924;28;20055;-58
2023/10/02 09:32:49;;;;;;;;;;;19.50;99.90;;;;;;5004407;28;20415;-59
2023/10/02 09:35:44;;;;;;;1380.80;999.90;;;19.90;99.90;;;;;;5007455;28;20303;-56
2023/10/02 09:38:12;;;;;;;1370.30;999.90;;;20.40;99.90;;;;;;5005067;28;19925;-59
2023/10/02 09:40:54;;;;;;;1398.72;930.67;;;20.90;99.90;;;;;;5003404;28;19976;-59
2023/10/02 09:43:35;;;;;;;1374.32;999.90;;;21.20;99.90;;;;;;5005069;28;20034;-57
2023/10/02 09:46:15;;;;;;;1379.18;999.90;;;21.40;99.90;;;;;;5004022;28;20038;-58
2023/10/02 09:49:07;;;;;;;1376.88;999.90;;;21.60;99.90;;;;;;5004338;28;20050;-56
2023/10/02 09:52:23;;;;;;;1375.25;999.90;;;21.70;99.90;;;;;;4998082;28;20053;-59
2023/10/02 09:55:15;;;;;;;1379.55;999.90;;;21.70;99.90;;;;;;5004614;28;20034;-58
2023/10/02 09:57:49;;;;;;;1400.40;925.20;;;21.70;99.90;;;;;;5003654;28;20120;-59
2023/10/02 10:00:36;;;;;;;1378.40;999.90;;;21.90;99.90;;;;;;5004281;28;20106;-58
2023/10/02 10:03:30;;;;;;;1400.90;921.40;;;21.90;99.90;;;;;;5003903;28;20046;-59
2023/10/02 10:06:08;;;;;;;1382.70;999.90;;;21.80;99.90;;;;;;5004309;28;20076;-59
2023/10/02 10:11:46;;;;;;;1391.40;933.30;;;21.10;99.90;;;;;;4997576;28;20046;-57
2023/10/02 10:14:37;;;;;;;1377.70;999.90;;;20.90;99.90;;;;;;5002577;28;20061;-58
2023/10/02 10:17:14;;;;;;;1407.80;938.45;;;20.70;99.90;;;;;;5003520;28;20053;-58
2023/10/02 10:20:18;;;;;;;1375.35;999.90;;;20.50;99.90;;;;;;5001764;28;20982;-58
2023/10/02 10:22:51;;;;;;;1397.30;916.90;;;20.50;99.90;;;;;;5003121;28;20053;-56
2023/10/02 10:25:22;;;;;;;1375.93;999.90;;;20.60;99.90;;;;;;5016232;28;20041;-58
2023/10/02 10:27:54;;;;;;;1399.85;950.20;;;20.90;99.90;;;;;;5022872;28;20041;-56
2023/10/02 10:30:28;;;;;;;1395.25;930.60;;;21.30;99.90;;;;;;5004413;28;20536;-55
2023/10/02 10:33:01;;;;;;;;;;;21.60;99.90;;;;;;5001657;28;20107;-57
2023/10/02 10:35:30;;;;;;;;;;;21.70;99.90;;;;;;5000915;28;20116;-58
2023/10/02 10:37:56;;;;;;;;;;;21.90;99.90;;;;;;5001530;28;20339;-55
2023/10/02 10:40:43;;;;;;;;;;;21.90;99.90;;;;;;5000503;28;20064;-57
2023/10/02 10:43:12;;;;;;;;;;;21.80;99.90;;;;;;4998613;28;20072;-59
2023/10/02 10:45:39;;;;;;;;;;;21.70;99.90;;;;;;4999523;28;20273;-58
2023/10/02 10:48:18;;;;;;;;;;;21.70;99.90;;;;;;5000577;28;20060;-58
2023/10/02 10:51:06;;;;;;;;;;;21.60;99.90;;;;;;4998305;28;20275;-57
2023/10/02 10:53:32;;;;;;;;;;;21.60;99.90;;;;;;5001172;28;20641;-57
2023/10/02 10:56:17;;;;;;;;;;;21.50;99.90;;;;;;5001118;28;20254;-58
2023/10/02 10:58:44;;;;;;;;;;;21.60;99.90;;;;;;5001406;28;20277;-58
2023/10/02 11:01:20;;;;;;;;;;;21.50;99.90;;;;;;5002799;28;20051;-57
2023/10/02 11:03:54;;;;;;;;;;;21.60;99.90;;;;;;4983070;28;20628;-59
2023/10/02 11:06:21;;;;;;;1391.90;931.20;;;21.60;99.90;;;;;;4983441;28;20414;-56
2023/10/02 11:09:11;;;;;;;1390.30;935.10;;;21.60;99.90;;;;;;4983926;28;20673;-58
2023/10/02 11:11:49;;;;;;;1383.75;924.50;;;21.50;99.90;;;;;;4983075;28;20108;-58
2023/10/02 11:14:20;;;;;;;;;;;21.40;99.90;;;;;;4983853;28;20334;-58
2023/10/02 11:16:53;;;;;;;;;;;21.40;99.90;;;;;;4983563;28;20105;-58
2023/10/02 11:22:14;;;;;;;;;;;21.50;99.90;;;;;;4983785;28;20086;-58
2023/10/02 11:25:02;;;;;;;;;;;21.60;99.90;;;;;;4983825;28;20100;-58
2023/10/02 11:27:29;;;;;;;;;;;21.50;99.90;;;;;;4982493;28;25095;-58
2023/10/02 11:30:01;;;;;;;;;;;21.50;99.90;;;;;;4982658;28;20008;-53
2023/10/02 11:32:44;;;;;;;;;;;21.50;99.90;;;;;;4983130;28;20251;-55
2023/10/02 11:35:10;;;;;;;;;;;21.70;99.90;;;;;;4993147;28;20070;-56
2023/10/02 11:37:44;;;;;;;;;;;21.70;99.90;;;;;;5001589;28;20118;-58
2023/10/02 11:40:09;;;;;;;1385.50;926.97;;;21.70;99.90;;;;;;5001926;28;19928;-58
2023/10/02 11:42:35;;;;;;;;;;;21.60;99.90;;;;;;5001056;28;20419;-58
2023/10/02 11:45:00;;;;;;;;;;;21.50;99.90;;;;;;5001338;28;20285;-55
2023/10/02 11:47:28;;;;;;;;;;;21.40;99.90;;;;;;5001947;28;20142;-53
2023/10/02 11:49:53;;;;;;;;;;;21.50;99.90;;;;;;5006090;28;20262;-56
2023/10/02 11:52:19;;;;;;;;;;;21.60;99.90;;;;;;5006694;28;19977;-58
2023/10/02 11:54:44;;;;;;;;;;;21.50;99.90;;;;;;5006246;28;20073;-58
2023/10/02 11:57:10;;;;;;;;;;;21.60;99.90;;;;;;5005119;28;20540;-58
2023/10/02 11:59:36;;;;;;;;;;;21.60;99.90;;;;;;5006075;28;20424;-55
2023/10/02 12:02:02;;;;;;;;;;;21.70;99.90;;;;;;5006733;28;19929;-57
2023/10/02 12:04:27;;;;;;;;;;;21.80;99.90;;;;;;5005427;28;20316;-54
2023/10/02 12:06:55;;;;;;;1360.70;999.90;;;21.90;99.90;;;;;;5005304;28;20059;-57
2023/10/02 12:09:24;;;;;;;;;;;22.00;99.90;;;;;;5005378;28;20443;-59
2023/10/02 12:11:50;;;;;;;;;;;22.00;99.90;;;;;;5005423;28;20076;-55
2023/10/02 12:14:16;;;;;;;;;;;22.00;99.90;;;;;;5003608;28;20073;-57
2023/10/02 12:16:41;;;;;;;1382.68;919.70;;;21.80;99.90;;;;;;5005422;28;20065;-54
2023/10/02 12:19:10;;;;;;;1384.20;916.40;;;21.80;99.90;;;;;;5005109;28;19961;-59
2023/10/02 12:21:36;;;;;;;1360.10;999.90;;;21.70;99.90;;;;;;5003956;28;20047;-59
2023/10/02 12:24:07;;;;;;;1389.55;924.08;;;21.80;99.90;;;;;;5005684;28;19925;-59
2023/10/02 12:26:33;;;;;;;1359.53;999.90;;;21.70;99.90;;;;;;5005527;28;20052;-59
2023/10/02 12:29:00;;;;;;;1361.47;999.90;;;21.70;99.90;;;;;;5005632;28;20042;-59
2023/10/02 12:31:26;;;;;;;1384.90;917.75;;;21.60;99.90;;;;;;5005528;28;20092;-58
2023/10/02 12:33:52;;;;;;;1381.68;909.13;;;21.60;99.90;;;;;;5005637;28;20460;-54
2023/10/02 12:36:22;;;;;;;1381.67;911.87;;;21.60;99.90;;;;;;5006504;28;19933;-57
2023/10/02 12:38:48;;;;;;;;;;;21.60;99.90;;;;;;5003587;28;19925;-56
2023/10/02 12:41:21;;;;;;;1365.55;999.90;;;21.60;99.90;;;;;;5005603;28;20756;-57
2023/10/02 12:43:48;;;;;;;;;;;21.60;99.90;;;;;;5006093;28;20068;-59
2023/10/02 12:46:14;;;;;;;1387.57;927.42;;;21.70;99.90;;;;;;5003964;28;20345;-57
2023/10/02 12:48:46;;;;;;;1360.70;999.90;;;21.80;99.90;;;;;;5001671;28;20531;-58
2023/10/02 12:51:13;;;;;;;1384.53;922.30;;;21.90;99.90;;;;;;5002455;28;20084;-59
2023/10/02 12:53:40;;;;;;;1360.88;999.90;;;21.90;99.90;;;;;;5001726;28;20548;-59
2023/10/02 12:56:06;;;;;;;1391.72;946.60;;;21.90;99.90;;;;;;5001283;28;20436;-55
2023/10/02 12:58:33;;;;;;;1360.10;999.90;;;21.90;99.90;;;;;;5002818;28;20041;-56
2023/10/02 13:01:00;;;;;;;1364.63;999.90;;;21.90;99.90;;;;;;4999406;28;20137;-54
2023/10/02 13:03:31;;;;;;;1361.88;999.90;;;21.80;99.90;;;;;;5002390;28;20038;-56
2023/10/02 13:06:01;;;;;;;1361.07;944.03;;;21.80;99.90;;;;;;5002181;28;20424;-56
2023/10/02 13:08:27;;;;;;;1364.55;999.90;;;21.70;99.90;;;;;;5001546;28;20638;-59
2023/10/02 13:10:53;;;;;;;1362.70;934.95;;;21.70;99.90;;;;;;5002703;28;20049;-57
2023/10/02 13:13:20;;;;;;;1357.85;933.88;;;21.70;99.90;;;;;;5002413;28;20034;-57
2023/10/02 13:15:48;;;;;;;1358.07;999.90;;;21.70;99.90;;;;;;5002056;28;20412;-55
2023/10/02 13:18:15;;;;;;;1235.00;931.75;;;21.80;99.90;;;;;;5001773;28;20703;-53
2023/10/02 13:20:43;;;;;;;1345.15;999.90;;;21.90;99.90;;;;;;5001601;28;20053;-53
2023/10/02 13:23:08;;;;;;;1352.63;999.90;;;22.00;99.90;;;;;;5000626;28;20064;-54
2023/10/02 13:25:35;;;;;;;1281.00;931.78;;;22.00;99.90;;;;;;5001473;28;20065;-56
2023/10/02 13:28:01;;;;;;;1341.13;999.90;;;21.90;99.90;;;;;;5002486;28;20045;-55
2023/10/02 13:30:30;;;;;;;1335.78;999.90;;;21.90;99.90;;;;;;5002363;28;20381;-55
2023/10/02 13:32:56;;;;;;;1283.80;924.17;;;21.80;99.90;;;;;;5000046;28;20045;-53
2023/10/02 13:35:23;;;;;;;1364.63;999.90;;;21.90;99.90;;;;;;5001042;28;20038;-54
2023/10/02 13:37:50;;;;;;;1357.10;999.90;;;21.90;99.90;;;;;;5001135;28;20038;-54
2023/10/02 13:40:25;;;;;;;1312.78;924.40;;;21.90;99.90;;;;;;5002860;28;20057;-54
2023/10/02 13:42:52;;;;;;;1332.05;999.90;;;21.90;99.90;;;;;;5008001;28;20038;-56
2023/10/02 13:45:21;;;;;;;1308.90;914.03;;;21.90;99.90;;;;;;5001654;28;20053;-56
2023/10/02 13:47:48;;;;;;;1161.90;914.40;;;21.90;99.90;;;;;;5001796;28;20528;-56
2023/10/02 13:50:14;;;;;;;1297.22;999.90;;;21.90;99.90;;;;;;5000253;28;20038;-53
2023/10/02 13:52:40;;;;;;;1238.13;928.85;;;21.90;99.90;;;;;;5001950;28;20069;-51
2023/10/02 13:55:19;;;;;;;1234.60;927.55;;;21.80;99.90;;;;;;5002202;28;20186;-55
2023/10/02 13:57:54;;;;;;;1182.25;926.80;;;21.70;99.90;;;;;;5000057;28;20052;-53
2023/10/02 14:00:20;;;;;;;1166.57;922.47;;;21.70;99.90;;;;;;4982782;28;20053;-52
2023/10/02 14:02:51;;;;;;;1310.93;999.90;;;21.80;99.90;;;;;;4997493;28;20099;-55
2023/10/02 14:05:18;;;;;;;1274.65;999.90;;;21.80;99.90;;;;;;4999743;28;20050;-51